createdAt,value
2017-05-16T00:01:02.744Z,47.59
2017-05-16T00:03:30.264Z,46.98
2017-05-16T00:05:57.828Z,47.37
2017-05-16T00:08:25.349Z,47.63
2017-05-16T00:10:54.061Z,48.71
2017-05-16T00:13:21.676Z,49.42
2017-05-16T00:15:49.170Z,49.82
2017-05-16T00:18:16.745Z,50.91
2017-05-16T00:20:44.269Z,50.27
2017-05-16T00:23:11.835Z,51.21
2017-05-16T00:25:39.344Z,50.90
2017-05-16T00:28:07.984Z,50.68
2017-05-16T00:30:35.483Z,50.62
2017-05-16T00:33:03.028Z,48.89
2017-05-16T00:35:30.596Z,48.40
2017-05-16T00:37:58.103Z,47.97
2017-05-16T00:40:25.659Z,47.79
2017-05-16T00:42:53.171Z,47.30
2017-05-16T00:45:20.751Z,47.44
2017-05-16T00:47:48.315Z,47.36
2017-05-16T00:50:16.011Z,47.47
2017-05-16T00:52:43.519Z,47.69
2017-05-16T00:55:11.043Z,47.49
2017-05-16T00:57:38.708Z,47.67
2017-05-16T01:00:06.260Z,48.15
2017-05-16T01:02:33.940Z,48.30
2017-05-16T01:05:01.456Z,48.52
2017-05-16T01:07:28.975Z,48.52
2017-05-16T01:09:56.607Z,49.01
2017-05-16T01:12:24.143Z,49.54
2017-05-16T01:14:51.702Z,50.53
2017-05-16T01:17:19.232Z,51.92
2017-05-16T01:19:46.944Z,50.94
2017-05-16T01:22:14.568Z,51.54
2017-05-16T01:24:42.091Z,51.46
2017-05-16T01:27:09.979Z,50.39
2017-05-16T01:29:37.497Z,51.13
2017-05-16T01:32:05.023Z,50.70
2017-05-16T01:34:32.677Z,49.78
2017-05-16T01:37:00.192Z,49.86
2017-05-16T01:39:27.910Z,50.65
2017-05-16T01:41:55.444Z,50.39
2017-05-16T01:44:22.961Z,50.50
2017-05-16T01:46:50.517Z,52.06
2017-05-16T01:49:18.027Z,52.37
2017-05-16T01:51:45.595Z,52.19
2017-05-16T01:54:13.127Z,51.98
2017-05-16T01:56:40.830Z,51.89
2017-05-16T01:59:08.352Z,51.48
2017-05-16T02:01:35.872Z,51.46
2017-05-16T02:04:03.475Z,51.83
2017-05-16T02:06:30.987Z,51.35
2017-05-16T02:08:58.668Z,51.32
2017-05-16T02:11:26.197Z,51.98
2017-05-16T02:13:53.732Z,51.69
2017-05-16T02:16:21.300Z,52.31
2017-05-16T02:18:48.833Z,52.06
2017-05-16T02:21:16.395Z,51.88
2017-05-16T02:23:43.941Z,52.54
2017-05-16T02:26:11.492Z,52.21
2017-05-16T02:28:39.050Z,52.92
2017-05-16T02:31:06.782Z,52.88
2017-05-16T02:33:34.339Z,52.15
2017-05-16T02:36:01.856Z,52.46
2017-05-16T02:38:29.408Z,52.03
2017-05-16T02:40:56.924Z,52.02
2017-05-16T02:43:24.637Z,52.45
2017-05-16T02:45:52.163Z,51.47
2017-05-16T02:48:19.676Z,52.33
2017-05-16T02:50:47.257Z,53.49
2017-05-16T02:53:14.772Z,54.19
2017-05-16T02:55:42.679Z,52.64
2017-05-16T02:58:10.206Z,52.54
2017-05-16T03:00:37.715Z,51.96
2017-05-16T03:03:05.268Z,52.11
2017-05-16T03:05:32.783Z,52.04
2017-05-16T03:08:00.356Z,51.85
2017-05-16T03:10:27.863Z,51.94
2017-05-16T03:12:55.524Z,52.01
2017-05-16T03:15:23.051Z,51.78
2017-05-16T03:17:50.571Z,51.96
2017-05-16T03:20:18.119Z,52.09
2017-05-16T03:22:45.672Z,51.50
2017-05-16T03:25:13.295Z,51.63
2017-05-16T03:27:40.809Z,51.82
2017-05-16T03:30:08.380Z,52.20
2017-05-16T03:32:35.905Z,52.03
2017-05-16T03:35:03.620Z,51.98
2017-05-16T03:37:31.149Z,52.83
2017-05-16T03:39:58.723Z,52.33
2017-05-16T03:42:26.327Z,52.77
2017-05-16T03:44:53.856Z,52.36
2017-05-16T03:47:21.755Z,52.04
2017-05-16T03:49:49.269Z,52.17
2017-05-16T03:52:16.791Z,52.10
2017-05-16T03:54:44.340Z,52.13
2017-05-16T03:57:11.844Z,52.87
2017-05-16T03:59:39.396Z,52.68
2017-05-16T04:02:06.916Z,52.89
2017-05-16T04:04:34.464Z,53.07
2017-05-16T04:07:01.980Z,53.26
2017-05-16T04:09:29.655Z,53.66
2017-05-16T04:11:57.180Z,53.67
2017-05-16T04:14:24.705Z,53.94
2017-05-16T04:16:52.256Z,53.67
2017-05-16T04:19:19.800Z,53.48
2017-05-16T04:21:47.355Z,53.70
2017-05-16T04:24:14.907Z,53.96
2017-05-16T04:26:42.580Z,53.99
2017-05-16T04:29:10.130Z,53.41
2017-05-16T04:31:37.646Z,53.89
2017-05-16T04:34:05.212Z,53.56
2017-05-16T04:36:32.741Z,53.82
2017-05-16T04:39:00.296Z,53.64
2017-05-16T04:41:27.804Z,53.92
2017-05-16T04:43:55.353Z,53.92
2017-05-16T04:46:22.877Z,54.01
2017-05-16T04:48:50.423Z,53.75
2017-05-16T04:51:17.940Z,53.80
2017-05-16T04:53:45.653Z,53.74
2017-05-16T04:56:13.171Z,55.14
2017-05-16T04:58:40.711Z,55.69
2017-05-16T05:01:08.290Z,54.11
2017-05-16T05:03:35.804Z,53.79
2017-05-16T05:06:03.361Z,53.60
2017-05-16T05:08:30.867Z,53.46
2017-05-16T05:10:58.424Z,53.65
2017-05-16T05:13:26.060Z,52.93
2017-05-16T05:15:53.747Z,52.59
2017-05-16T05:18:21.311Z,53.25
2017-05-16T05:20:48.876Z,53.29
2017-05-16T05:23:16.461Z,53.53
2017-05-16T05:25:44.096Z,54.28
2017-05-16T05:28:11.650Z,54.03
2017-05-16T05:30:39.185Z,54.09
2017-05-16T05:33:06.913Z,54.38
2017-05-16T05:35:34.485Z,54.34
2017-05-16T05:38:02.000Z,53.61
2017-05-16T05:40:29.560Z,53.63
2017-05-16T05:42:57.077Z,53.76
2017-05-16T05:45:24.635Z,53.94
2017-05-16T05:47:52.218Z,54.23
2017-05-16T05:50:19.963Z,53.99
2017-05-16T05:52:47.510Z,54.15
2017-05-16T05:55:15.163Z,54.37
2017-05-16T05:57:42.732Z,54.70
2017-05-16T06:00:10.313Z,54.91
2017-05-16T06:05:14.220Z,55.00
2017-05-16T06:07:42.333Z,54.96
2017-05-16T06:10:09.850Z,55.10
2017-05-16T06:12:37.374Z,54.79
2017-05-16T06:15:04.983Z,54.72
2017-05-16T06:17:32.515Z,55.27
2017-05-16T06:20:00.063Z,55.01
2017-05-16T06:22:27.585Z,54.91
2017-05-16T06:24:55.159Z,55.00
2017-05-16T06:27:22.696Z,54.28
2017-05-16T06:29:50.347Z,54.47
2017-05-16T06:32:17.900Z,54.32
2017-05-16T06:34:45.443Z,54.65
2017-05-16T06:37:13.029Z,54.40
2017-05-16T06:39:40.560Z,55.40
2017-05-16T06:42:08.251Z,55.23
2017-05-16T06:44:35.780Z,54.79
2017-05-16T06:47:03.291Z,54.56
2017-05-16T06:49:30.849Z,54.31
2017-05-16T06:51:58.369Z,54.72
2017-05-16T06:54:25.927Z,54.33
2017-05-16T06:56:53.470Z,53.72
2017-05-16T06:59:21.024Z,54.11
2017-05-16T07:01:48.540Z,54.30
2017-05-16T07:04:16.218Z,53.24
2017-05-16T07:06:43.764Z,53.19
2017-05-16T07:09:11.300Z,53.26
2017-05-16T07:11:38.902Z,52.86
2017-05-16T07:14:06.448Z,53.73
2017-05-16T07:16:34.017Z,53.44
2017-05-16T07:19:01.565Z,52.97
2017-05-16T07:21:29.240Z,53.07
2017-05-16T07:23:56.761Z,53.47
2017-05-16T07:26:24.277Z,53.37
2017-05-16T07:28:51.836Z,52.81
2017-05-16T07:31:19.359Z,53.49
2017-05-16T07:33:46.934Z,53.96
2017-05-16T07:36:14.483Z,54.33
2017-05-16T07:38:42.175Z,54.15
2017-05-16T07:41:09.699Z,53.92
2017-05-16T07:43:37.247Z,54.74
2017-05-16T07:46:04.799Z,55.51
2017-05-16T07:48:32.362Z,54.34
2017-05-16T07:51:00.069Z,54.72
2017-05-16T07:53:27.596Z,54.48
2017-05-16T07:55:55.117Z,54.69
2017-05-16T07:58:22.680Z,54.52
2017-05-16T08:00:50.196Z,53.44
2017-05-16T08:03:17.754Z,53.89
2017-05-16T08:05:45.276Z,54.09
2017-05-16T08:08:12.833Z,53.44
2017-05-16T08:10:40.389Z,52.10
2017-05-16T08:13:08.057Z,52.54
2017-05-16T08:15:35.580Z,52.79
2017-05-16T08:18:03.101Z,52.38
2017-05-16T08:20:30.680Z,53.15
2017-05-16T08:22:58.239Z,51.53
2017-05-16T08:25:25.828Z,50.82
2017-05-16T08:27:53.349Z,50.73
2017-05-16T08:30:20.871Z,50.55
2017-05-16T08:32:48.537Z,50.63
2017-05-16T08:35:16.156Z,50.95
2017-05-16T08:37:43.804Z,50.24
2017-05-16T08:40:11.328Z,50.80
2017-05-16T08:42:39.070Z,51.51
2017-05-16T08:45:06.599Z,51.30
2017-05-16T08:47:34.114Z,50.53
2017-05-16T08:50:01.705Z,50.72
2017-05-16T08:52:29.243Z,50.91
2017-05-16T08:54:56.812Z,49.83
2017-05-16T08:57:24.328Z,50.04
2017-05-16T08:59:52.079Z,49.90
2017-05-16T09:02:19.643Z,50.27
2017-05-16T09:04:47.221Z,49.54
2017-05-16T09:07:15.097Z,49.65
2017-05-16T09:09:42.600Z,50.42
2017-05-16T09:12:10.160Z,48.74
2017-05-16T09:14:37.680Z,48.82
2017-05-16T09:17:05.258Z,49.22
2017-05-16T09:19:32.789Z,49.32
2017-05-16T09:22:00.684Z,48.91
2017-05-16T09:24:28.221Z,47.92
2017-05-16T09:26:55.759Z,47.52
2017-05-16T09:29:23.422Z,47.65
2017-05-16T09:31:50.969Z,48.03
2017-05-16T09:34:18.544Z,47.69
2017-05-16T09:36:46.065Z,47.05
2017-05-16T09:39:13.599Z,45.95
2017-05-16T09:41:41.167Z,47.35
2017-05-16T09:44:08.685Z,46.77
2017-05-16T09:46:36.248Z,46.35
2017-05-16T09:49:03.802Z,46.76
2017-05-16T09:51:31.474Z,46.25
2017-05-16T09:53:59.057Z,45.72
2017-05-16T09:56:26.587Z,45.79
2017-05-16T09:58:54.152Z,45.98
2017-05-16T10:01:21.742Z,45.10
2017-05-16T10:03:49.402Z,45.85
2017-05-16T10:06:16.922Z,45.32
2017-05-16T10:08:44.480Z,45.75
2017-05-16T10:11:12.024Z,44.60
2017-05-16T10:13:39.591Z,44.04
2017-05-16T10:16:07.121Z,44.30
2017-05-16T10:18:34.635Z,43.82
2017-05-16T10:21:02.216Z,43.54
2017-05-16T10:23:29.730Z,43.17
2017-05-16T10:25:57.439Z,43.04
2017-05-16T10:28:24.995Z,42.31
2017-05-16T10:30:52.872Z,42.33
2017-05-16T10:33:20.483Z,43.13
2017-05-16T10:38:14.665Z,42.25
2017-05-16T10:40:42.228Z,42.14
2017-05-16T10:43:10.189Z,41.45
2017-05-16T10:45:37.714Z,40.44
2017-05-16T10:48:05.240Z,41.16
2017-05-16T10:50:32.811Z,40.72
2017-05-16T10:53:00.324Z,40.50
2017-05-16T10:55:27.895Z,39.69
2017-05-16T10:57:55.432Z,39.99
2017-05-16T11:00:23.155Z,40.11
2017-05-16T11:02:50.682Z,39.94
2017-05-16T11:05:18.228Z,39.38
2017-05-16T11:07:45.912Z,39.03
2017-05-16T11:10:13.420Z,39.32
2017-05-16T11:12:40.955Z,38.53
2017-05-16T11:15:08.509Z,38.40
2017-05-16T11:17:36.185Z,39.95
2017-05-16T11:20:03.722Z,39.05
2017-05-16T11:22:31.271Z,38.43
2017-05-16T11:24:58.907Z,37.30
2017-05-16T11:27:26.423Z,37.42
2017-05-16T11:29:54.093Z,37.64
2017-05-16T11:32:21.631Z,38.10
2017-05-16T11:34:49.227Z,37.32
2017-05-16T11:37:16.847Z,37.31
2017-05-16T11:39:44.388Z,36.53
2017-05-16T11:42:12.107Z,37.73
2017-05-16T11:44:39.632Z,36.42
2017-05-16T11:47:07.156Z,36.31
2017-05-16T11:49:34.721Z,35.30
2017-05-16T11:52:02.236Z,34.93
2017-05-16T11:54:29.788Z,35.32
2017-05-16T11:56:57.300Z,35.88
2017-05-16T11:59:24.825Z,35.52
2017-05-16T12:01:52.375Z,36.05
2017-05-16T12:04:19.887Z,36.01
2017-05-16T12:06:47.447Z,36.99
2017-05-16T12:09:14.970Z,36.56
2017-05-16T12:11:42.625Z,37.35
2017-05-16T12:14:10.169Z,35.88
2017-05-16T12:16:37.697Z,35.57
2017-05-16T12:19:05.256Z,38.34
2017-05-16T12:21:32.776Z,35.63
2017-05-16T12:24:00.623Z,34.88
2017-05-16T12:26:28.162Z,35.02
2017-05-16T12:28:55.669Z,35.31
2017-05-16T12:31:23.220Z,35.15
2017-05-16T12:33:50.752Z,33.74
2017-05-16T12:36:18.311Z,34.73
2017-05-16T12:38:45.834Z,34.74
2017-05-16T12:41:13.495Z,35.26
2017-05-16T12:43:41.016Z,34.75
2017-05-16T12:46:08.550Z,35.57
2017-05-16T12:48:36.113Z,36.23
2017-05-16T12:51:03.645Z,36.75
2017-05-16T12:53:31.213Z,37.30
2017-05-16T12:55:58.727Z,37.18
2017-05-16T12:58:26.327Z,35.94
2017-05-16T13:00:53.861Z,36.81
2017-05-16T13:03:21.455Z,37.04
2017-05-16T13:05:48.977Z,37.73
2017-05-16T13:08:16.832Z,37.23
2017-05-16T13:10:44.358Z,37.08
2017-05-16T13:13:11.872Z,37.61
2017-05-16T13:15:39.488Z,38.96
2017-05-16T13:18:07.007Z,36.11
2017-05-16T13:20:34.632Z,36.44
2017-05-16T13:23:02.140Z,35.37
2017-05-16T13:25:29.820Z,34.94
2017-05-16T13:27:57.416Z,34.99
2017-05-16T13:30:24.960Z,35.28
2017-05-16T13:32:52.576Z,36.06
2017-05-16T13:35:20.060Z,35.44
2017-05-16T13:37:47.936Z,35.66
2017-05-16T13:40:15.468Z,35.99
2017-05-16T13:42:42.999Z,36.15
2017-05-16T13:45:10.547Z,36.22
2017-05-16T13:47:38.069Z,37.50
2017-05-16T13:50:05.625Z,36.96
2017-05-16T13:52:33.218Z,35.56
2017-05-16T13:55:00.991Z,35.43
2017-05-16T13:57:28.512Z,35.00
2017-05-16T13:59:56.042Z,34.97
2017-05-16T14:02:23.611Z,34.26
2017-05-16T14:04:51.151Z,35.94
2017-05-16T14:07:18.717Z,36.61
2017-05-16T14:09:46.237Z,36.11
2017-05-16T14:12:13.904Z,36.56
2017-05-16T14:14:41.427Z,36.55
2017-05-16T14:17:09.012Z,36.58
2017-05-16T14:19:36.685Z,37.11
2017-05-16T14:22:04.260Z,35.89
2017-05-16T14:24:31.992Z,34.90
2017-05-16T14:26:59.509Z,33.04
2017-05-16T14:29:27.094Z,33.24
2017-05-16T14:31:54.662Z,31.59
2017-05-16T14:34:22.188Z,31.10
2017-05-16T14:36:50.095Z,30.19
2017-05-16T14:39:17.620Z,30.68
2017-05-16T14:41:45.156Z,30.67
2017-05-16T14:44:12.711Z,30.86
2017-05-16T14:46:40.228Z,32.52
2017-05-16T14:49:07.898Z,33.47
2017-05-16T14:51:35.432Z,33.31
2017-05-16T14:54:02.974Z,33.36
2017-05-16T14:56:30.545Z,33.77
2017-05-16T14:58:58.122Z,34.16
2017-05-16T15:01:25.721Z,35.21
2017-05-16T15:03:53.246Z,35.08
2017-05-16T15:06:20.965Z,34.92
2017-05-16T15:08:48.508Z,34.66
2017-05-16T15:11:16.072Z,34.43
2017-05-16T15:13:43.695Z,34.32
2017-05-16T15:16:11.231Z,32.89
2017-05-16T15:18:38.918Z,33.07
2017-05-16T15:21:06.458Z,33.78
2017-05-16T15:23:34.031Z,34.60
2017-05-16T15:26:01.583Z,34.02
2017-05-16T15:28:29.746Z,34.37
2017-05-16T15:30:57.748Z,34.42
2017-05-16T15:33:25.350Z,34.30
2017-05-16T15:35:52.883Z,34.74
2017-05-16T15:38:20.974Z,34.11
2017-05-16T15:40:48.484Z,34.11
2017-05-16T15:43:16.068Z,33.71
2017-05-16T15:45:43.580Z,34.99
2017-05-16T15:48:11.432Z,33.29
2017-05-16T15:50:38.977Z,33.80
2017-05-16T15:53:06.503Z,33.76
2017-05-16T15:55:34.089Z,33.25
2017-05-16T15:58:01.610Z,33.62
2017-05-16T16:00:29.199Z,34.17
2017-05-16T16:02:56.727Z,33.54
2017-05-16T16:05:24.589Z,34.13
2017-05-16T16:07:52.126Z,33.62
2017-05-16T16:10:19.655Z,34.02
2017-05-16T16:12:47.204Z,33.84
2017-05-16T16:15:14.749Z,34.04
2017-05-16T16:17:42.540Z,34.35
2017-05-16T16:20:10.080Z,35.15
2017-05-16T16:22:37.600Z,34.71
2017-05-16T16:25:05.171Z,35.50
2017-05-16T16:27:32.732Z,35.34
2017-05-16T16:30:00.293Z,35.30
2017-05-16T16:32:27.807Z,36.57
2017-05-16T16:34:55.472Z,36.31
2017-05-16T16:37:23.039Z,35.73
2017-05-16T16:39:50.562Z,36.45
2017-05-16T16:42:18.126Z,35.47
2017-05-16T16:44:45.636Z,36.25
2017-05-16T16:47:13.211Z,35.24
2017-05-16T16:49:40.728Z,35.05
2017-05-16T16:52:08.409Z,34.98
2017-05-16T16:54:35.935Z,34.62
2017-05-16T16:57:03.478Z,34.83
2017-05-16T16:59:31.108Z,34.37
2017-05-16T17:01:58.655Z,34.38
2017-05-16T17:04:26.335Z,34.06
2017-05-16T17:06:53.912Z,35.31
2017-05-16T17:09:21.444Z,36.00
2017-05-16T17:11:48.989Z,36.18
2017-05-16T17:14:16.499Z,36.40
2017-05-16T17:16:44.523Z,36.39
2017-05-16T17:19:12.042Z,35.98
2017-05-16T17:21:39.795Z,36.31
2017-05-16T17:24:07.331Z,36.85
2017-05-16T17:26:34.856Z,37.10
2017-05-16T17:29:02.414Z,37.34
2017-05-16T17:31:29.935Z,38.16
2017-05-16T17:33:57.798Z,38.03
2017-05-16T17:36:25.574Z,38.03
2017-05-16T17:38:53.155Z,38.48
2017-05-16T17:41:20.748Z,38.84
2017-05-16T17:43:48.282Z,38.26
2017-05-16T17:46:15.838Z,38.08
2017-05-16T17:48:43.392Z,38.60
2017-05-16T17:51:11.053Z,39.22
2017-05-16T17:53:38.660Z,39.96
2017-05-16T17:56:06.200Z,41.00
2017-05-16T17:58:33.800Z,41.81
2017-05-16T18:01:01.327Z,41.20
2017-05-16T18:03:28.890Z,41.80
2017-05-16T18:05:56.412Z,41.45
2017-05-16T18:08:23.979Z,41.35
2017-05-16T18:10:51.627Z,41.23
2017-05-16T18:13:19.263Z,41.05
2017-05-16T18:15:46.841Z,41.92
2017-05-16T18:18:14.407Z,42.38
2017-05-16T18:20:42.003Z,43.29
2017-05-16T18:23:09.565Z,43.39
2017-05-16T18:25:37.135Z,43.54
2017-05-16T18:28:04.714Z,43.58
2017-05-16T18:30:32.425Z,43.52
2017-05-16T18:32:59.944Z,46.79
2017-05-16T18:35:27.479Z,46.32
2017-05-16T18:37:55.019Z,46.13
2017-05-16T18:40:22.536Z,46.64
2017-05-16T18:42:50.144Z,47.69
2017-05-16T18:45:17.665Z,47.75
2017-05-16T18:47:45.230Z,48.04
2017-05-16T18:50:12.758Z,48.45
2017-05-16T18:52:40.418Z,47.91
2017-05-16T18:55:07.944Z,47.15
2017-05-16T18:57:35.475Z,48.62
2017-05-16T19:00:03.050Z,48.01
2017-05-16T19:02:30.582Z,48.58
2017-05-16T19:04:58.267Z,48.56
2017-05-16T19:07:25.791Z,48.92
2017-05-16T19:09:53.323Z,48.49
2017-05-16T19:12:20.877Z,48.26
2017-05-16T19:14:48.400Z,48.80
2017-05-16T19:17:16.053Z,48.72
2017-05-16T19:19:43.634Z,49.47
2017-05-16T19:22:11.195Z,49.79
2017-05-16T19:24:38.776Z,49.78
2017-05-16T19:27:06.315Z,50.08
2017-05-16T19:29:34.071Z,50.02
2017-05-16T19:32:01.592Z,50.94
2017-05-16T19:34:29.104Z,51.12
2017-05-16T19:36:56.667Z,51.30
2017-05-16T19:39:24.240Z,51.18
2017-05-16T19:41:51.787Z,51.52
2017-05-16T19:44:19.377Z,51.51
2017-05-16T19:46:47.192Z,51.46
2017-05-16T19:49:14.744Z,51.67
2017-05-16T19:51:42.279Z,51.27
2017-05-16T19:54:09.941Z,51.18
2017-05-16T19:56:37.478Z,51.62
2017-05-16T19:59:05.039Z,52.22
2017-05-16T20:01:32.584Z,51.93
2017-05-16T20:04:00.148Z,52.87
2017-05-16T20:06:27.688Z,53.28
2017-05-16T20:08:55.431Z,53.37
2017-05-16T20:11:22.940Z,53.65
2017-05-16T20:13:50.451Z,53.94
2017-05-16T20:16:18.003Z,54.49
2017-05-16T20:18:45.547Z,54.06
2017-05-16T20:21:13.135Z,54.41
2017-05-16T20:23:40.669Z,55.00
2017-05-16T20:26:08.487Z,54.53
2017-05-16T20:28:36.068Z,55.40
2017-05-16T20:31:03.627Z,55.64
2017-05-16T20:33:31.274Z,55.70
2017-05-16T20:35:58.804Z,55.59
2017-05-16T20:38:26.440Z,54.85
2017-05-16T20:40:53.980Z,54.08
2017-05-16T20:43:21.865Z,53.45
2017-05-16T20:48:16.178Z,52.97
2017-05-16T20:50:44.033Z,53.03
2017-05-16T20:53:11.586Z,53.46
2017-05-16T20:55:39.126Z,53.61
2017-05-16T20:58:06.667Z,53.92
2017-05-16T21:00:34.193Z,53.67
2017-05-16T21:03:01.741Z,54.08
2017-05-16T21:05:29.269Z,54.24
2017-05-16T21:07:56.840Z,54.37
2017-05-16T21:10:24.372Z,54.72
2017-05-16T21:12:51.899Z,54.53
2017-05-16T21:15:19.456Z,55.01
2017-05-16T21:17:46.971Z,55.08
2017-05-16T21:20:14.851Z,54.99
2017-05-16T21:22:42.360Z,55.20
2017-05-16T21:25:09.884Z,55.11
2017-05-16T21:27:37.436Z,54.68
2017-05-16T21:30:04.948Z,54.86
2017-05-16T21:32:32.512Z,55.24
2017-05-16T21:35:00.025Z,54.75
2017-05-16T21:37:27.570Z,54.16
2017-05-16T21:39:55.103Z,53.09
2017-05-16T21:42:23.176Z,52.59
2017-05-16T21:44:50.688Z,52.55
2017-05-16T21:47:18.207Z,52.23
2017-05-16T21:49:45.759Z,52.47
2017-05-16T21:52:13.289Z,52.12
2017-05-16T21:54:41.192Z,51.74
2017-05-16T21:57:08.758Z,51.54
2017-05-16T21:59:36.279Z,51.38
2017-05-16T22:02:03.966Z,50.36
2017-05-16T22:04:31.477Z,49.40
2017-05-16T22:06:58.989Z,49.20
2017-05-16T22:09:26.532Z,48.46
2017-05-16T22:11:54.063Z,48.49
2017-05-16T22:14:21.632Z,48.20
2017-05-16T22:16:49.179Z,47.85
2017-05-16T22:19:16.925Z,47.90
2017-05-16T22:21:44.503Z,47.82
2017-05-16T22:24:12.015Z,47.62
2017-05-16T22:26:39.580Z,47.53
2017-05-16T22:29:07.100Z,47.45
2017-05-16T22:31:34.654Z,47.67
2017-05-16T22:34:02.184Z,48.16
2017-05-16T22:36:29.756Z,48.29
2017-05-16T22:38:57.307Z,48.20
2017-05-16T22:41:24.923Z,48.64
2017-05-16T22:43:52.660Z,48.71
2017-05-16T22:46:20.188Z,48.70
2017-05-16T22:48:47.787Z,48.87
2017-05-16T22:51:15.363Z,49.47
2017-05-16T22:53:42.871Z,49.37
2017-05-16T22:56:10.432Z,49.86
2017-05-16T22:58:37.959Z,50.13
2017-05-16T23:01:05.693Z,50.11
2017-05-16T23:03:33.207Z,50.26
2017-05-16T23:06:00.745Z,49.98
2017-05-16T23:08:28.329Z,49.79
2017-05-16T23:10:55.864Z,49.79
2017-05-16T23:13:23.636Z,50.22
2017-05-16T23:15:51.244Z,50.65
2017-05-16T23:18:18.761Z,50.37
2017-05-16T23:20:46.319Z,50.60
2017-05-16T23:23:13.917Z,50.60
2017-05-16T23:25:41.721Z,50.67
2017-05-16T23:28:09.234Z,50.60
2017-05-16T23:30:36.786Z,50.21
2017-05-16T23:33:04.365Z,50.18
2017-05-16T23:35:31.904Z,49.48
2017-05-16T23:37:59.487Z,49.42
2017-05-16T23:40:27.174Z,49.03
2017-05-16T23:42:54.740Z,48.45
2017-05-16T23:45:22.308Z,48.29
2017-05-16T23:47:49.836Z,48.20
2017-05-16T23:50:17.391Z,48.13
2017-05-16T23:52:45.045Z,48.25
2017-05-16T23:55:12.597Z,48.26
2017-05-16T23:57:40.202Z,47.70
